Aeroporto :
LOGIN :

Iscrizione | Disclaimer

   EN    FR    IT 

 










Sommario :    VFR   VFR Marginale   IFR   IFR Intensivo   IFR Molto Intensivo
Visibilità : 
Base nubi : 
>= 8 km
>= 3000ft
5 / 8 km
1000 / 3000 ft
1500m / 5 km
500 / 1000 ft
800 / 1500m
200 / 500 ft
< 800m
< 200 ft
Simboli :   Temporali  Nebbia  Neve Forte  Precipitazioni Forti  Vento > 20 kt
SIGMETs :   Varie  Temporali  Ghiacco  Turbolenza  Onda orograficha  Ceneri Vulcaniche






- Altitudine del aeroporto : 1496 ft
- Codice IATA : SBZ


LRSB - Sibiu

ULTIMO METAR :
  • 270500Z 19002KT 4000 BR NSC M02/M02 Q1017

METARs OBSOLETI :
  • 270430Z 10002KT 4000 BR NSC M03/M03 Q1017
  • 270400Z 00000KT 3000 BR NSC M03/M03 Q1018
  • 270330Z 00000KT 2000 BCFG BR NSC M03/M03 Q1018
  • 270300Z VRB01KT 2500 BCFG BR NSC M04/M04 Q1018
  • 270230Z VRB02KT 3000 BCFG BR NSC M02/M02 Q1018

TAF TAF LRSB
Valido dal 27 a 00 ore il 28 a 00 ore UTC


262300Z 2700/2724 VRB04KT 5000 BR BKN070
TEMPO 2700/2706 3000 BR
BECMG 2707/2709 9999 NSW
BECMG 2712/2714 5000 -RA BR BKN015 BKN040
BECMG 2716/2718 3000 RA BR BKN010 OVC035
PROB40
TEMPO 2721/2724 1500 FZRA BR BKN005 OVC025



MetMap, La meteo Aeronautica in un colpo d'occhio ! - Copyright ORBIFLY Dicembre 2007 - Disclaimer

ORBIFLY MET'MAP TEAM :

Programmazione e sviluppo : Alexandra Zaïnal
Concezione : Baudouin d'Aumeries
Aiuto per la programmazione : Marc-Olivier Méhu
Supporto tecnico e logistico : Manuel Goepfert
Aiuto per la traduzione : Arnaldo La Scala

Contatto : metmap@orbifly.com




FONTI E CREDITI :

   NOAA